createdAt,value
2019-05-23T00:00:40.029Z,14.40
2019-05-23T00:03:10.490Z,14.60
2019-05-23T00:05:47.424Z,14.60
2019-05-23T00:08:18.505Z,14.60
2019-05-23T00:11:04.283Z,14.60
2019-05-23T00:13:38.217Z,14.60
2019-05-23T00:16:09.191Z,14.60
2019-05-23T00:18:38.356Z,14.70
2019-05-23T00:21:09.542Z,14.70
2019-05-23T00:23:39.337Z,14.60
2019-05-23T00:26:08.552Z,14.50
2019-05-23T00:28:39.293Z,14.40
2019-05-23T00:31:22.615Z,14.40
2019-05-23T00:33:52.556Z,14.40
2019-05-23T00:36:24.858Z,14.40
2019-05-23T00:38:55.604Z,14.40
2019-05-23T00:41:25.365Z,14.30
2019-05-23T00:43:55.124Z,14.20
2019-05-23T00:46:24.783Z,14.20
2019-05-23T00:48:55.727Z,14.10
2019-05-23T00:51:25.362Z,14.00
2019-05-23T00:53:54.923Z,13.90
2019-05-23T00:56:24.849Z,14.00
2019-05-23T00:58:55.129Z,13.90
2019-05-23T01:01:26.023Z,13.90
2019-05-23T01:03:56.394Z,13.80
2019-05-23T01:06:25.670Z,13.80
2019-05-23T01:08:56.007Z,13.80
2019-05-23T01:11:25.771Z,13.80
2019-05-23T01:13:56.300Z,13.90
2019-05-23T01:16:26.841Z,13.80
2019-05-23T01:18:56.312Z,13.80
2019-05-23T01:21:33.342Z,13.80
2019-05-23T01:24:04.229Z,13.70
2019-05-23T01:26:34.462Z,13.70
2019-05-23T01:29:05.144Z,13.60
2019-05-23T01:31:38.873Z,13.60
2019-05-23T01:34:09.805Z,13.60
2019-05-23T01:36:39.587Z,13.60
2019-05-23T01:39:10.491Z,13.70
2019-05-23T01:41:40.334Z,13.80
2019-05-23T01:44:11.555Z,13.80
2019-05-23T01:46:40.293Z,13.90
2019-05-23T01:49:10.061Z,13.80
2019-05-23T01:51:39.155Z,13.60
2019-05-23T01:54:09.570Z,13.60
2019-05-23T01:56:39.408Z,13.50
2019-05-23T01:59:08.719Z,13.40
2019-05-23T02:01:39.098Z,13.40
2019-05-23T02:04:09.053Z,13.50
2019-05-23T02:06:38.490Z,13.50
2019-05-23T02:09:09.459Z,13.50
2019-05-23T02:11:39.099Z,13.50
2019-05-23T02:14:08.968Z,13.50
2019-05-23T02:16:39.694Z,13.40
2019-05-23T02:19:13.438Z,13.40
2019-05-23T02:21:41.123Z,13.40
2019-05-23T02:24:12.181Z,13.40
2019-05-23T02:26:41.446Z,13.50
2019-05-23T02:29:10.919Z,13.50
2019-05-23T02:31:41.413Z,13.60
2019-05-23T02:34:12.066Z,13.50
2019-05-23T02:36:42.183Z,13.40
2019-05-23T02:39:13.803Z,13.40
2019-05-23T02:41:54.100Z,13.40
2019-05-23T02:44:25.408Z,13.40
2019-05-23T02:46:59.827Z,13.40
2019-05-23T02:49:32.579Z,13.40
2019-05-23T02:52:16.668Z,13.40
2019-05-23T02:54:45.931Z,13.30
2019-05-23T02:57:19.371Z,13.30
2019-05-23T02:59:52.573Z,13.30
2019-05-23T03:02:47.490Z,13.30
2019-05-23T03:05:18.450Z,13.30
2019-05-23T03:07:48.191Z,13.30
2019-05-23T03:10:20.341Z,13.30
2019-05-23T03:12:53.038Z,13.30
2019-05-23T03:15:24.957Z,13.30
2019-05-23T03:17:55.707Z,13.30
2019-05-23T03:20:27.045Z,13.30
2019-05-23T03:23:12.554Z,13.20
2019-05-23T03:25:57.439Z,13.30
2019-05-23T03:28:28.967Z,13.30
2019-05-23T03:31:25.350Z,13.40
2019-05-23T03:33:30.687Z,13.40
2019-05-23T03:35:59.982Z,13.40
2019-05-23T03:38:29.672Z,13.50
2019-05-23T03:40:59.640Z,13.40
2019-05-23T03:43:29.209Z,13.40
2019-05-23T03:46:03.441Z,13.40
2019-05-23T03:48:34.215Z,13.50
2019-05-23T03:51:03.457Z,13.60
2019-05-23T03:53:32.775Z,13.70
2019-05-23T03:56:01.985Z,13.80
2019-05-23T03:58:31.711Z,13.90
2019-05-23T04:01:02.591Z,14.00
2019-05-23T04:03:33.006Z,14.10
2019-05-23T04:06:02.697Z,14.10
2019-05-23T04:08:32.521Z,14.20
2019-05-23T04:11:01.856Z,14.30
2019-05-23T04:13:30.970Z,14.40
2019-05-23T04:16:00.566Z,14.50
2019-05-23T04:18:33.002Z,14.60
2019-05-23T04:21:02.383Z,14.70
2019-05-23T04:23:31.485Z,14.90
2019-05-23T04:26:00.625Z,15.00
2019-05-23T04:28:30.306Z,15.10
2019-05-23T04:31:00.332Z,15.20
2019-05-23T04:33:30.010Z,15.40
2019-05-23T04:35:59.860Z,15.50
2019-05-23T04:38:30.439Z,15.70
2019-05-23T04:40:59.797Z,15.90
2019-05-23T04:43:28.959Z,16.10
2019-05-23T04:45:58.569Z,16.20
2019-05-23T04:48:29.413Z,16.20
2019-05-23T04:51:00.179Z,16.20
2019-05-23T04:53:30.761Z,16.30
2019-05-23T04:56:00.801Z,16.40
2019-05-23T04:58:29.907Z,16.50
2019-05-23T05:01:00.512Z,16.70
2019-05-23T05:03:30.675Z,16.90
2019-05-23T05:05:59.906Z,17.00
2019-05-23T05:08:30.654Z,17.20
2019-05-23T05:11:00.502Z,17.30
2019-05-23T05:13:30.847Z,17.40
2019-05-23T05:16:00.125Z,17.40
2019-05-23T05:18:30.628Z,17.50
2019-05-23T05:21:00.036Z,17.60
2019-05-23T05:23:29.355Z,17.60
2019-05-23T05:25:58.534Z,17.70
2019-05-23T05:28:27.855Z,17.70
2019-05-23T05:30:57.486Z,17.80
2019-05-23T05:33:26.701Z,18.00
2019-05-23T05:35:56.170Z,18.10
2019-05-23T05:38:28.604Z,18.10
2019-05-23T05:40:57.026Z,18.20
2019-05-23T05:43:26.387Z,18.30
2019-05-23T05:45:56.467Z,18.30
2019-05-23T05:48:25.709Z,18.40
2019-05-23T05:50:55.491Z,18.50
2019-05-23T05:53:24.842Z,18.60
2019-05-23T05:55:54.192Z,18.80
2019-05-23T05:58:23.513Z,18.80
2019-05-23T06:01:06.676Z,18.90
2019-05-23T06:03:36.224Z,19.10
2019-05-23T06:06:23.474Z,19.20
2019-05-23T06:08:54.924Z,19.30
2019-05-23T06:11:24.174Z,19.40
2019-05-23T06:13:53.684Z,19.40
2019-05-23T06:16:23.405Z,19.50
2019-05-23T06:18:52.950Z,19.60
2019-05-23T06:21:24.377Z,19.70
2019-05-23T06:23:53.897Z,19.70
2019-05-23T06:26:23.258Z,19.80
2019-05-23T06:28:52.654Z,19.80
2019-05-23T06:31:22.451Z,19.90
2019-05-23T06:33:52.680Z,20.00
2019-05-23T06:36:21.926Z,20.10
2019-05-23T06:39:02.592Z,20.10
2019-05-23T06:41:30.027Z,20.20
2019-05-23T06:43:59.298Z,20.30
2019-05-23T06:46:28.535Z,20.40
2019-05-23T06:48:57.783Z,20.50
2019-05-23T06:51:27.534Z,20.60
2019-05-23T06:53:56.844Z,20.60
2019-05-23T06:56:26.365Z,20.60
2019-05-23T06:58:55.640Z,20.60
2019-05-23T07:01:24.861Z,20.60
2019-05-23T07:03:54.095Z,20.60
2019-05-23T07:06:25.155Z,20.60
2019-05-23T07:08:54.125Z,20.70
2019-05-23T07:11:23.913Z,20.70
2019-05-23T07:13:53.212Z,20.80
2019-05-23T07:16:22.518Z,20.90
2019-05-23T07:18:51.860Z,20.90
2019-05-23T07:21:21.523Z,21.00
2019-05-23T07:23:50.738Z,21.10
2019-05-23T07:26:20.038Z,21.20
2019-05-23T07:28:49.518Z,21.30
2019-05-23T07:31:18.628Z,21.30
2019-05-23T07:34:01.330Z,21.20
2019-05-23T07:36:18.900Z,21.30
2019-05-23T07:38:48.076Z,21.30
2019-05-23T07:41:18.106Z,21.40
2019-05-23T07:43:47.367Z,21.60
2019-05-23T07:46:16.550Z,21.50
2019-05-23T07:48:45.797Z,21.60
2019-05-23T07:51:15.074Z,21.70
2019-05-23T07:53:46.494Z,21.90
2019-05-23T07:56:17.404Z,21.90
2019-05-23T07:58:47.013Z,22.00
2019-05-23T08:01:17.975Z,22.10
2019-05-23T08:03:50.557Z,22.40
2019-05-23T08:06:20.912Z,22.60
2019-05-23T08:08:51.120Z,22.70
2019-05-23T08:11:20.462Z,22.90
2019-05-23T08:13:50.418Z,23.20
2019-05-23T08:16:19.743Z,23.20
2019-05-23T08:18:48.994Z,23.20
2019-05-23T08:21:21.519Z,23.10
2019-05-23T08:23:51.988Z,23.20
2019-05-23T08:26:21.623Z,23.40
2019-05-23T08:29:21.751Z,23.40
2019-05-23T08:31:22.362Z,23.50
2019-05-23T08:33:51.614Z,23.40
2019-05-23T08:36:20.801Z,23.40
2019-05-23T08:38:49.986Z,23.40
2019-05-23T08:41:19.386Z,23.70
2019-05-23T08:43:48.950Z,23.70
2019-05-23T08:46:18.720Z,23.60
2019-05-23T08:48:48.066Z,23.30
2019-05-23T08:51:17.607Z,23.20
2019-05-23T08:53:46.942Z,23.10
2019-05-23T08:56:19.646Z,22.80
2019-05-23T08:58:47.908Z,22.90
2019-05-23T09:01:17.440Z,22.90
2019-05-23T09:03:47.691Z,23.00
2019-05-23T09:06:18.070Z,22.90
2019-05-23T09:08:47.268Z,23.00
2019-05-23T09:11:17.920Z,23.30
2019-05-23T09:13:47.478Z,23.70
2019-05-23T09:16:16.846Z,23.80
2019-05-23T09:18:46.109Z,24.00
2019-05-23T09:21:15.915Z,24.20
2019-05-23T09:23:45.198Z,24.20
2019-05-23T09:26:14.430Z,24.30
2019-05-23T09:28:43.744Z,24.20
2019-05-23T09:31:13.262Z,24.20
2019-05-23T09:33:42.567Z,24.20
2019-05-23T09:36:11.864Z,24.20
2019-05-23T09:38:41.342Z,24.40
2019-05-23T09:41:10.528Z,24.30
2019-05-23T09:43:39.926Z,24.20
2019-05-23T09:46:09.048Z,24.20
2019-05-23T09:48:38.203Z,24.20
2019-05-23T09:51:07.325Z,24.30
2019-05-23T09:53:36.627Z,24.30
2019-05-23T09:56:05.820Z,24.30
2019-05-23T09:58:34.945Z,24.30
2019-05-23T10:01:04.624Z,24.20
2019-05-23T10:03:33.909Z,24.20
2019-05-23T10:06:03.197Z,24.10
2019-05-23T10:08:32.313Z,24.10
2019-05-23T10:11:01.616Z,24.20
2019-05-23T10:13:39.119Z,24.20
2019-05-23T10:16:03.769Z,24.10
2019-05-23T10:18:35.246Z,24.10
2019-05-23T10:21:04.902Z,24.00
2019-05-23T10:23:34.233Z,24.10
2019-05-23T10:26:04.382Z,23.90
2019-05-23T10:28:33.798Z,24.00
2019-05-23T10:31:07.583Z,24.40
2019-05-23T10:33:37.047Z,24.70
2019-05-23T10:36:06.242Z,24.80
2019-05-23T10:38:35.447Z,24.90
2019-05-23T10:41:05.502Z,25.10
2019-05-23T10:43:34.710Z,25.40
2019-05-23T10:46:04.204Z,25.40
2019-05-23T10:48:34.184Z,25.20
2019-05-23T10:51:03.322Z,25.10
2019-05-23T10:53:32.638Z,24.90
2019-05-23T10:56:01.880Z,24.60
2019-05-23T10:58:31.322Z,24.60
2019-05-23T11:01:00.687Z,25.90
2019-05-23T11:03:30.930Z,27.90
2019-05-23T11:06:15.092Z,28.70
2019-05-23T11:08:31.098Z,28.40
2019-05-23T11:11:00.673Z,28.80
2019-05-23T11:13:30.686Z,30.10
2019-05-23T11:16:00.191Z,31.30
2019-05-23T11:18:30.068Z,32.90
2019-05-23T11:20:59.296Z,33.90
2019-05-23T11:23:33.412Z,34.10
2019-05-23T11:26:03.399Z,33.70
2019-05-23T11:28:36.358Z,32.50
2019-05-23T11:31:07.766Z,31.20
2019-05-23T11:33:37.035Z,29.70
2019-05-23T11:36:06.813Z,28.50
2019-05-23T11:38:36.214Z,27.70
2019-05-23T11:41:05.607Z,27.60
2019-05-23T11:43:34.771Z,27.30
2019-05-23T11:46:05.982Z,26.90
2019-05-23T11:48:36.061Z,26.80
2019-05-23T11:51:05.339Z,26.60
2019-05-23T11:53:34.615Z,26.60
2019-05-23T11:56:03.890Z,26.30
2019-05-23T11:58:33.200Z,25.80
2019-05-23T12:01:09.784Z,25.40
2019-05-23T12:03:39.470Z,25.70
2019-05-23T12:06:08.853Z,26.20
2019-05-23T12:08:38.178Z,26.60
2019-05-23T12:11:07.428Z,26.90
2019-05-23T12:13:36.859Z,27.90
2019-05-23T12:16:07.629Z,29.50
2019-05-23T12:18:37.155Z,30.80
2019-05-23T12:21:07.476Z,32.40
2019-05-23T12:23:36.844Z,33.60
2019-05-23T12:26:06.139Z,34.50
2019-05-23T12:28:35.435Z,34.40
2019-05-23T12:31:05.661Z,35.20
2019-05-23T12:33:35.009Z,35.50
2019-05-23T12:36:07.764Z,35.20
2019-05-23T12:38:36.988Z,33.30
2019-05-23T12:41:07.211Z,31.90
2019-05-23T12:43:36.419Z,30.40
2019-05-23T12:46:07.407Z,28.60
2019-05-23T12:48:54.832Z,26.70
2019-05-23T12:51:28.675Z,26.20
2019-05-23T12:53:58.028Z,26.50
2019-05-23T12:56:27.363Z,28.30
2019-05-23T12:58:57.340Z,29.80
2019-05-23T13:01:27.215Z,30.90
2019-05-23T13:03:56.854Z,31.00
2019-05-23T13:06:26.411Z,30.60
2019-05-23T13:08:55.774Z,29.60
2019-05-23T13:11:25.450Z,28.20
2019-05-23T13:13:54.711Z,27.50
2019-05-23T13:16:25.160Z,28.20
2019-05-23T13:18:54.439Z,27.60
2019-05-23T13:21:24.053Z,26.90
2019-05-23T13:23:53.676Z,27.00
2019-05-23T13:26:24.033Z,28.00
2019-05-23T13:28:54.667Z,29.50
2019-05-23T13:31:24.702Z,30.80
2019-05-23T13:33:54.098Z,32.10
2019-05-23T13:36:23.620Z,32.90
2019-05-23T13:38:53.160Z,33.70
2019-05-23T13:41:22.530Z,34.10
2019-05-23T13:43:53.833Z,34.30
2019-05-23T13:46:23.091Z,34.70
2019-05-23T13:48:52.216Z,34.80
2019-05-23T13:51:21.324Z,35.30
2019-05-23T13:53:50.518Z,35.60
2019-05-23T13:56:20.279Z,35.20
2019-05-23T13:58:50.095Z,34.90
2019-05-23T14:01:19.380Z,34.90
2019-05-23T14:03:48.659Z,35.10
2019-05-23T14:06:17.885Z,34.90
2019-05-23T14:08:47.118Z,35.20
2019-05-23T14:11:16.300Z,34.70
2019-05-23T14:13:45.959Z,34.60
2019-05-23T14:16:16.157Z,34.40
2019-05-23T14:18:45.402Z,34.70
2019-05-23T14:21:14.642Z,34.70
2019-05-23T14:23:43.922Z,34.50
2019-05-23T14:26:13.561Z,34.20
2019-05-23T14:28:42.999Z,34.40
2019-05-23T14:31:13.822Z,34.40
2019-05-23T14:33:48.030Z,34.00
2019-05-23T14:36:21.780Z,34.10
2019-05-23T14:38:52.711Z,34.00
2019-05-23T14:41:22.057Z,33.50
2019-05-23T14:43:52.621Z,33.50
2019-05-23T14:46:22.599Z,33.00
2019-05-23T14:49:11.805Z,32.90
2019-05-23T14:51:52.850Z,33.00
2019-05-23T14:54:23.758Z,33.00
2019-05-23T14:56:52.950Z,32.90
2019-05-23T14:59:23.489Z,32.70
2019-05-23T15:01:52.490Z,32.70
2019-05-23T15:04:22.560Z,32.40
2019-05-23T15:06:51.835Z,32.40
2019-05-23T15:09:22.064Z,32.20
2019-05-23T15:11:51.904Z,31.80
2019-05-23T15:14:21.144Z,31.80
2019-05-23T15:16:50.331Z,31.70
2019-05-23T15:19:38.805Z,31.60
2019-05-23T15:21:50.263Z,31.60
2019-05-23T15:24:19.717Z,31.40
2019-05-23T15:26:48.994Z,31.20
2019-05-23T15:29:18.276Z,31.20
2019-05-23T15:32:01.021Z,31.20
2019-05-23T15:34:18.425Z,31.20
2019-05-23T15:36:47.712Z,31.20
2019-05-23T15:39:18.477Z,31.40
2019-05-23T15:42:00.245Z,31.40
2019-05-23T15:44:29.022Z,31.30
2019-05-23T15:46:56.342Z,31.60
2019-05-23T15:49:26.009Z,31.50
2019-05-23T15:51:56.817Z,31.30
2019-05-23T15:54:39.691Z,31.10
2019-05-23T15:57:11.371Z,30.70
2019-05-23T15:59:48.034Z,30.40
2019-05-23T16:02:24.749Z,30.40
2019-05-23T16:04:55.830Z,30.10
2019-05-23T16:07:25.411Z,30.10
2019-05-23T16:09:54.677Z,29.40
2019-05-23T16:12:24.818Z,29.00
2019-05-23T16:14:53.992Z,28.40
2019-05-23T16:17:23.220Z,28.10
2019-05-23T16:19:52.511Z,27.90
2019-05-23T16:22:21.733Z,27.70
2019-05-23T16:24:50.927Z,27.40
2019-05-23T16:27:20.715Z,27.50
2019-05-23T16:29:49.885Z,27.30
2019-05-23T16:32:19.152Z,27.00
2019-05-23T16:34:48.459Z,26.70
2019-05-23T16:37:18.088Z,26.40
2019-05-23T16:39:49.859Z,26.30
2019-05-23T16:42:17.843Z,26.30
2019-05-23T16:44:46.992Z,26.20
2019-05-23T16:47:16.254Z,26.20
2019-05-23T16:49:45.536Z,25.80
2019-05-23T16:52:14.858Z,25.40
2019-05-23T16:54:46.190Z,25.10
2019-05-23T16:57:35.261Z,24.80
2019-05-23T17:00:25.987Z,24.60
2019-05-23T17:03:13.933Z,24.30
2019-05-23T17:05:45.052Z,24.10
2019-05-23T17:08:18.489Z,24.00
2019-05-23T17:10:52.357Z,23.90
2019-05-23T17:13:27.903Z,23.90
2019-05-23T17:16:04.775Z,23.80
2019-05-23T17:18:53.972Z,23.30
2019-05-23T17:21:44.509Z,22.90
2019-05-23T17:24:33.659Z,22.40
2019-05-23T17:27:07.534Z,22.00
2019-05-23T17:29:41.293Z,21.70
2019-05-23T17:32:12.396Z,21.20
2019-05-23T17:34:40.709Z,21.00
2019-05-23T17:37:10.748Z,20.80
2019-05-23T17:39:40.122Z,20.70
2019-05-23T17:42:09.393Z,20.70
2019-05-23T17:44:38.620Z,20.60
2019-05-23T17:47:08.076Z,20.50
2019-05-23T17:49:37.630Z,20.40
2019-05-23T17:52:07.957Z,20.30
2019-05-23T17:54:37.422Z,20.10
2019-05-23T17:57:06.668Z,20.10
2019-05-23T17:59:36.149Z,20.10
2019-05-23T18:02:07.408Z,20.10
2019-05-23T18:04:36.863Z,20.20
2019-05-23T18:07:07.384Z,20.30
2019-05-23T18:09:37.251Z,20.30
2019-05-23T18:12:07.668Z,20.30
2019-05-23T18:14:37.465Z,20.30
2019-05-23T18:17:07.609Z,20.30
2019-05-23T18:19:36.917Z,20.40
2019-05-23T18:22:08.032Z,20.50
2019-05-23T18:24:36.908Z,20.50
2019-05-23T18:27:07.787Z,20.50
2019-05-23T18:29:37.114Z,20.50
2019-05-23T18:32:08.484Z,20.50
2019-05-23T18:34:38.883Z,20.50
2019-05-23T18:37:08.610Z,20.40
2019-05-23T18:39:38.356Z,20.40
2019-05-23T18:42:07.940Z,20.40
2019-05-23T18:44:37.791Z,20.50
2019-05-23T18:47:08.789Z,20.40
2019-05-23T18:49:38.179Z,20.30
2019-05-23T18:52:07.466Z,20.20
2019-05-23T18:54:36.745Z,20.00
2019-05-23T18:57:06.259Z,20.00
2019-05-23T18:59:35.467Z,19.90
2019-05-23T19:02:13.395Z,19.90
2019-05-23T19:04:42.709Z,19.90
2019-05-23T19:07:12.988Z,19.80
2019-05-23T19:09:42.957Z,19.70
2019-05-23T19:12:12.475Z,19.70
2019-05-23T19:14:41.746Z,19.80
2019-05-23T19:17:11.012Z,19.80
2019-05-23T19:19:40.192Z,19.90
2019-05-23T19:22:09.935Z,20.00
2019-05-23T19:24:39.223Z,20.00
2019-05-23T19:27:10.004Z,19.90
2019-05-23T19:29:40.033Z,19.90
2019-05-23T19:32:09.877Z,19.70
2019-05-23T19:34:39.139Z,19.60
2019-05-23T19:37:09.498Z,19.40
2019-05-23T19:39:39.566Z,19.40
2019-05-23T19:42:09.729Z,19.30
2019-05-23T19:44:39.014Z,19.30
2019-05-23T19:47:08.260Z,19.20
2019-05-23T19:49:37.850Z,19.10
2019-05-23T19:52:07.687Z,19.00
2019-05-23T19:54:37.020Z,19.00
2019-05-23T19:57:06.513Z,19.00
2019-05-23T19:59:35.725Z,19.00
2019-05-23T20:02:08.222Z,19.00
2019-05-23T20:04:42.155Z,18.90
2019-05-23T20:08:13.466Z,19.00
2019-05-23T20:10:43.547Z,18.90
2019-05-23T20:13:12.831Z,19.00
2019-05-23T20:15:45.687Z,19.00
2019-05-23T20:18:13.469Z,19.00
2019-05-23T20:20:42.671Z,18.90
2019-05-23T20:23:15.797Z,18.80
2019-05-23T20:25:43.668Z,18.80
2019-05-23T20:28:12.931Z,18.70
2019-05-23T20:30:48.585Z,18.70
2019-05-23T20:33:17.812Z,18.60
2019-05-23T20:35:47.154Z,18.60
2019-05-23T20:38:16.747Z,18.60
2019-05-23T20:40:46.899Z,18.50
2019-05-23T20:43:16.166Z,18.40
2019-05-23T20:45:45.404Z,18.40
2019-05-23T20:48:14.694Z,18.50
2019-05-23T20:50:44.114Z,18.40
2019-05-23T20:53:13.541Z,18.40
2019-05-23T20:55:43.178Z,18.40
2019-05-23T20:58:12.463Z,18.40
2019-05-23T21:00:58.866Z,18.40
2019-05-23T21:03:28.124Z,18.40
2019-05-23T21:05:57.293Z,18.50
2019-05-23T21:08:26.608Z,18.50
2019-05-23T21:10:55.773Z,18.50
2019-05-23T21:13:24.995Z,18.40
2019-05-23T21:15:54.269Z,18.50
2019-05-23T21:18:23.558Z,18.40
2019-05-23T21:20:52.729Z,18.40
2019-05-23T21:23:22.112Z,18.40
2019-05-23T21:25:56.182Z,18.40
2019-05-23T21:28:25.477Z,18.20
2019-05-23T21:30:54.860Z,18.20
2019-05-23T21:33:24.395Z,18.20
2019-05-23T21:35:53.667Z,18.00
2019-05-23T21:38:23.433Z,17.90
2019-05-23T21:40:52.534Z,17.70
2019-05-23T21:43:21.770Z,17.60
2019-05-23T21:45:51.016Z,17.60
2019-05-23T21:48:20.774Z,17.60
2019-05-23T21:50:49.987Z,17.60
2019-05-23T21:53:19.317Z,17.60
2019-05-23T21:55:48.438Z,17.40
2019-05-23T21:58:17.662Z,17.30
2019-05-23T22:01:00.505Z,17.30
2019-05-23T22:03:31.366Z,17.30
2019-05-23T22:06:01.289Z,17.40
2019-05-23T22:08:30.926Z,17.60
2019-05-23T22:11:00.133Z,17.60
2019-05-23T22:13:29.382Z,17.60
2019-05-23T22:15:58.579Z,17.70
2019-05-23T22:18:27.848Z,17.60
2019-05-23T22:20:57.099Z,17.60
2019-05-23T22:23:26.371Z,17.40
2019-05-23T22:25:55.540Z,17.20
2019-05-23T22:28:24.730Z,17.00
2019-05-23T22:30:53.920Z,17.10
2019-05-23T22:33:24.839Z,17.10
2019-05-23T22:35:54.392Z,17.10
2019-05-23T22:38:23.618Z,17.10
2019-05-23T22:40:52.762Z,17.10
2019-05-23T22:43:21.979Z,17.10
2019-05-23T22:45:51.246Z,17.00
2019-05-23T22:48:20.474Z,16.90
2019-05-23T22:50:49.616Z,16.90
2019-05-23T22:53:18.986Z,16.80
2019-05-23T22:55:48.166Z,16.60
2019-05-23T22:58:17.440Z,16.70
2019-05-23T23:00:48.343Z,16.80
2019-05-23T23:03:17.543Z,16.90
2019-05-23T23:05:46.783Z,16.80
2019-05-23T23:08:16.816Z,16.80
2019-05-23T23:10:45.976Z,16.70
2019-05-23T23:13:15.595Z,16.50
2019-05-23T23:15:44.874Z,16.40
2019-05-23T23:18:14.188Z,16.30
2019-05-23T23:20:45.970Z,16.20
2019-05-23T23:23:14.205Z,16.20
2019-05-23T23:25:43.604Z,16.20
2019-05-23T23:28:15.767Z,16.20
2019-05-23T23:30:49.177Z,16.30
2019-05-23T23:33:18.492Z,16.30
2019-05-23T23:35:47.711Z,16.20
2019-05-23T23:38:17.001Z,16.30
2019-05-23T23:40:46.109Z,16.30
2019-05-23T23:43:15.313Z,16.40
2019-05-23T23:46:02.619Z,16.50
2019-05-23T23:48:49.826Z,16.50
2019-05-23T23:51:36.819Z,16.40
2019-05-23T23:54:23.929Z,16.50
2019-05-23T23:57:11.234Z,16.50
2019-05-23T23:59:39.731Z,16.60
